Time;durP1;ratioP1;P1;durP2;ratioP2;P2;SDS_P1;SDS_P2;PMS_P1;PMS_P2;Temp;Humidity;BMP_temperature;BMP_pressure;BME280_temperature;BME280_humidity;BME280_pressure;Samples;Min_cycle;Max_cycle;Signal;HPM_P1;HPM_P2
2023/07/05 00:01:54;;;;;;;28.17;11.05;;;18.40;99.90;;;;;;4177727;28;20079;-61
2023/07/05 00:03:55;;;;;;;3.22;2.53;;;18.40;99.90;;;;;;4176296;28;20110;-69
2023/07/05 00:06:03;;;;;;;6.32;3.28;;;18.40;99.90;;;;;;4177844;28;20048;-61
2023/07/05 00:08:05;;;;;;;4.50;3.03;;;18.40;99.90;;;;;;4176970;28;20095;-71
2023/07/05 00:10:07;;;;;;;4.88;2.53;;;18.30;99.90;;;;;;4177324;28;20049;-70
2023/07/05 00:12:08;;;;;;;7.88;3.95;;;18.30;99.90;;;;;;4176619;28;20110;-61
2023/07/05 00:14:09;;;;;;;6.63;3.17;;;18.30;99.90;;;;;;4176872;28;20044;-72
2023/07/05 00:16:12;;;;;;;3.65;2.78;;;18.30;99.90;;;;;;4176713;28;20469;-70
2023/07/05 00:18:13;;;;;;;4.63;2.90;;;18.40;99.90;;;;;;4177058;28;20328;-69
2023/07/05 00:20:15;;;;;;;5.80;2.63;;;18.40;99.90;;;;;;4176819;28;20037;-63
2023/07/05 00:22:16;;;;;;;9.02;2.50;;;18.40;99.90;;;;;;4176303;28;20545;-69
2023/07/05 00:24:18;;;;;;;6.43;3.17;;;18.40;99.90;;;;;;4177366;28;20037;-69
2023/07/05 00:26:19;;;;;;;4.55;2.75;;;18.40;99.90;;;;;;4175806;28;20562;-70
2023/07/05 00:28:20;;;;;;;4.07;2.72;;;18.40;99.90;;;;;;4177640;28;20894;-68
2023/07/05 00:30:21;;;;;;;3.70;2.85;;;18.40;99.90;;;;;;4176495;28;20078;-61
2023/07/05 00:32:22;;;;;;;3.92;2.95;;;18.40;99.90;;;;;;4176882;28;20049;-71
2023/07/05 00:34:23;;;;;;;6.00;2.95;;;18.40;99.90;;;;;;4176539;28;20099;-70
2023/07/05 00:36:25;;;;;;;3.13;2.60;;;18.40;99.90;;;;;;4177738;28;20493;-72
2023/07/05 00:38:26;;;;;;;2.78;2.42;;;18.40;99.90;;;;;;4176321;28;20041;-64
2023/07/05 00:40:27;;;;;;;8.85;2.70;;;18.40;99.90;;;;;;4177615;28;20028;-70
2023/07/05 00:42:28;;;;;;;4.63;2.40;;;18.50;99.90;;;;;;4176384;28;20021;-67
2023/07/05 00:44:29;;;;;;;5.53;2.20;;;18.50;99.90;;;;;;4176772;28;20029;-59
2023/07/05 00:46:33;;;;;;;3.83;2.60;;;18.50;99.90;;;;;;4179221;28;21124;-64
2023/07/05 00:49:14;;;;;;;5.00;2.55;;;18.40;99.90;;;;;;4182287;28;20524;-61
2023/07/05 00:51:28;;;;;;;4.75;2.20;;;18.40;99.90;;;;;;4181495;28;20041;-68
2023/07/05 00:53:30;;;;;;;3.40;2.65;;;18.40;99.90;;;;;;4183115;28;20033;-68
2023/07/05 00:55:32;;;;;;;3.83;2.55;;;18.40;99.90;;;;;;4181067;28;20098;-64
2023/07/05 00:57:36;;;;;;;2.67;2.47;;;18.40;99.90;;;;;;4182294;28;20130;-70
2023/07/05 00:59:46;;;;;;;6.57;2.53;;;18.40;99.90;;;;;;4181989;28;20429;-70
2023/07/05 01:01:48;;;;;;;5.55;2.55;;;18.30;99.90;;;;;;4182931;28;20093;-63
2023/07/05 01:03:53;;;;;;;4.28;2.65;;;18.30;99.90;;;;;;4181953;28;20536;-72
2023/07/05 01:05:57;;;;;;;5.55;2.95;;;18.30;99.90;;;;;;4182205;28;20460;-71
2023/07/05 01:07:58;;;;;;;5.05;2.75;;;18.30;99.90;;;;;;4182195;28;20041;-69
2023/07/05 01:10:00;;;;;;;2.60;2.20;;;18.30;99.90;;;;;;4182025;28;20033;-72
2023/07/05 01:12:04;;;;;;;4.72;2.90;;;18.20;99.90;;;;;;4182377;28;20550;-61
2023/07/05 01:14:33;;;;;;;4.80;2.83;;;18.20;99.90;;;;;;4181856;28;20480;-66
2023/07/05 01:16:51;;;;;;;5.10;3.25;;;18.30;99.90;;;;;;4181993;28;20029;-71
2023/07/05 01:19:38;;;;;;;4.43;2.50;;;18.30;99.90;;;;;;4182347;28;20094;-70
2023/07/05 01:21:49;;;;;;;7.78;2.65;;;18.20;99.90;;;;;;4178013;28;20033;-60
2023/07/05 01:24:05;;;;;;;2.85;2.50;;;18.20;99.90;;;;;;4182581;28;20503;-72
2023/07/05 01:26:12;;;;;;;3.85;3.20;;;18.20;99.90;;;;;;4181578;28;20110;-71
2023/07/05 01:28:36;;;;;;;12.95;3.00;;;18.20;99.90;;;;;;4182072;28;20041;-61
2023/07/05 01:30:56;;;;;;;5.05;3.28;;;18.10;99.90;;;;;;4181739;28;20029;-68
2023/07/05 01:33:02;;;;;;;5.05;3.22;;;18.10;99.90;;;;;;4182582;28;20099;-60
2023/07/05 01:35:16;;;;;;;5.03;3.15;;;18.00;99.90;;;;;;4163584;28;20111;-61
2023/07/05 01:37:37;;;;;;;3.45;2.88;;;18.00;99.90;;;;;;4182516;28;20036;-61
2023/07/05 01:39:39;;;;;;;5.93;3.05;;;18.00;99.90;;;;;;4181066;28;20075;-70
2023/07/05 01:41:40;;;;;;;7.80;3.03;;;17.90;99.90;;;;;;4182496;28;20075;-63
2023/07/05 01:43:45;;;;;;;3.47;2.60;;;17.90;99.90;;;;;;4181129;28;20114;-65
2023/07/05 01:46:21;;;;;;;5.25;3.25;;;17.90;99.90;;;;;;4182603;28;20491;-72
2023/07/05 01:48:40;;;;;;;12.35;3.03;;;18.00;99.90;;;;;;4180515;28;20033;-63
2023/07/05 01:51:11;;;;;;;4.63;2.50;;;18.00;99.90;;;;;;4176764;28;20130;-61
2023/07/05 01:53:23;;;;;;;18.52;4.82;;;17.90;99.90;;;;;;4170948;28;20448;-67
2023/07/05 01:55:38;;;;;;;3.45;2.92;;;17.90;99.90;;;;;;4181857;28;20389;-60
2023/07/05 01:58:18;;;;;;;4.22;3.10;;;17.80;99.90;;;;;;4179312;28;20075;-61
2023/07/05 02:00:21;;;;;;;7.35;3.42;;;17.80;99.90;;;;;;4127328;28;20031;-60
2023/07/05 02:02:34;;;;;;;8.40;2.97;;;17.70;99.90;;;;;;4148730;28;20099;-59
2023/07/05 02:04:36;;;;;;;6.70;2.83;;;17.80;99.90;;;;;;4161639;28;20041;-61
2023/07/05 02:06:38;;;;;;;4.05;2.58;;;17.70;99.90;;;;;;4179232;28;20440;-61
2023/07/05 02:08:42;;;;;;;4.60;3.30;;;17.80;99.90;;;;;;4178827;28;20025;-60
2023/07/05 02:10:43;;;;;;;6.07;3.03;;;17.80;99.90;;;;;;4179218;28;20102;-60
2023/07/05 02:12:44;;;;;;;5.95;3.08;;;17.80;99.90;;;;;;4178992;28;20074;-60
2023/07/05 02:14:45;;;;;;;6.63;2.75;;;17.80;99.90;;;;;;4178292;28;20032;-60
2023/07/05 02:16:46;;;;;;;6.70;2.88;;;17.80;99.90;;;;;;4178763;28;20091;-60
2023/07/05 02:18:48;;;;;;;6.55;3.03;;;17.80;99.90;;;;;;4177748;28;20041;-60
2023/07/05 02:20:49;;;;;;;6.03;3.25;;;17.70;99.90;;;;;;4179250;28;20036;-60
2023/07/05 02:22:50;;;;;;;8.57;3.20;;;17.70;99.90;;;;;;4178488;28;20017;-61
2023/07/05 02:24:51;;;;;;;5.15;2.85;;;17.70;99.90;;;;;;4179369;28;20021;-60
2023/07/05 02:26:55;;;;;;;5.30;3.22;;;17.70;99.90;;;;;;4177011;28;20030;-59
2023/07/05 02:28:58;;;;;;;4.13;3.15;;;17.70;99.90;;;;;;4178392;28;20033;-63
2023/07/05 02:31:09;;;;;;;4.55;3.17;;;17.70;99.90;;;;;;4177319;28;20444;-63
2023/07/05 02:33:10;;;;;;;4.47;3.28;;;17.60;99.90;;;;;;4178157;28;20044;-61
2023/07/05 02:35:11;;;;;;;4.57;2.97;;;17.60;99.90;;;;;;4178620;28;20087;-63
2023/07/05 02:37:13;;;;;;;6.38;3.38;;;17.60;99.90;;;;;;4179537;28;20079;-71
2023/07/05 02:39:15;;;;;;;5.88;2.88;;;17.60;99.90;;;;;;4177422;28;20041;-68
2023/07/05 02:41:16;;;;;;;8.90;3.72;;;17.60;99.90;;;;;;4179006;28;20033;-70
2023/07/05 02:43:17;;;;;;;4.82;3.17;;;17.60;99.90;;;;;;4178122;28;20017;-68
2023/07/05 02:45:19;;;;;;;4.80;3.22;;;17.50;99.90;;;;;;4178633;28;20029;-69
2023/07/05 02:47:20;;;;;;;11.73;5.88;;;17.50;99.90;;;;;;4178744;28;20029;-69
2023/07/05 02:49:21;;;;;;;6.43;3.78;;;17.50;99.90;;;;;;4177674;28;20025;-62
2023/07/05 02:51:23;;;;;;;7.97;3.50;;;17.60;99.90;;;;;;4177549;28;20029;-62
2023/07/05 02:53:24;;;;;;;5.32;2.60;;;17.60;99.90;;;;;;4178107;28;20041;-65
2023/07/05 02:55:25;;;;;;;5.68;3.10;;;17.60;99.90;;;;;;4178694;28;20037;-62
2023/07/05 02:57:26;;;;;;;4.63;2.67;;;17.70;99.90;;;;;;4177352;28;20104;-62
2023/07/05 02:59:27;;;;;;;3.25;2.78;;;17.70;99.90;;;;;;4177737;28;20086;-61
2023/07/05 03:01:28;;;;;;;6.70;3.03;;;17.70;99.90;;;;;;4177615;28;20094;-61
2023/07/05 03:03:29;;;;;;;3.33;2.78;;;17.80;99.90;;;;;;4160492;28;20045;-60
2023/07/05 03:05:30;;;;;;;9.75;4.07;;;17.80;99.90;;;;;;4177234;28;20052;-62
2023/07/05 03:07:32;;;;;;;4.32;3.03;;;17.90;99.90;;;;;;4178656;28;20131;-64
2023/07/05 03:09:33;;;;;;;5.20;2.92;;;18.00;99.90;;;;;;4176310;28;20182;-59
2023/07/05 03:11:34;;;;;;;4.25;3.40;;;18.10;99.90;;;;;;4177270;28;20488;-59
2023/07/05 03:13:36;;;;;;;7.43;2.85;;;18.20;99.90;;;;;;4176816;28;20519;-62
2023/07/05 03:15:37;;;;;;;5.05;3.28;;;18.40;99.90;;;;;;4176489;28;20515;-61
2023/07/05 03:17:38;;;;;;;9.52;3.10;;;18.60;99.90;;;;;;4176966;28;20392;-60
2023/07/05 03:19:39;;;;;;;9.18;2.80;;;18.70;99.90;;;;;;4176564;28;20444;-59
2023/07/05 03:21:42;;;;;;;12.73;4.13;;;18.90;99.90;;;;;;4177116;28;20032;-60
2023/07/05 03:23:43;;;;;;;5.22;2.75;;;19.10;99.90;;;;;;4176981;28;20102;-60
2023/07/05 03:25:59;;;;;;;9.60;2.67;;;19.20;99.90;;;;;;4177487;28;20110;-60
2023/07/05 03:28:02;;;;;;;6.88;2.53;;;19.20;99.90;;;;;;4159915;28;20447;-60
2023/07/05 03:30:03;;;;;;;4.80;2.78;;;19.40;99.90;;;;;;4162080;28;20437;-62
2023/07/05 03:32:07;;;;;;;4.65;2.50;;;19.60;99.90;;;;;;4176065;28;20049;-60
2023/07/05 03:34:08;;;;;;;3.38;2.53;;;19.70;99.90;;;;;;4160453;28;20083;-60
2023/07/05 03:36:18;;;;;;;4.40;2.67;;;20.00;99.90;;;;;;4177070;28;20066;-63
2023/07/05 03:38:19;;;;;;;4.00;2.58;;;20.20;99.90;;;;;;4161278;28;20401;-60
2023/07/05 03:40:20;;;;;;;7.63;3.03;;;20.40;99.90;;;;;;4162270;28;20119;-60
2023/07/05 03:42:21;;;;;;;3.95;2.80;;;20.80;99.90;;;;;;4178320;28;20392;-61
2023/07/05 03:44:24;;;;;;;3.95;2.40;;;21.10;99.90;;;;;;4176312;28;20440;-61
2023/07/05 03:46:25;;;;;;;3.92;2.92;;;21.40;99.90;;;;;;4177764;28;20040;-64
2023/07/05 03:48:29;;;;;;;4.30;2.90;;;21.40;99.90;;;;;;4175995;28;20041;-61
2023/07/05 03:50:34;;;;;;;5.43;3.03;;;21.60;99.90;;;;;;4177776;28;20432;-63
2023/07/05 03:52:35;;;;;;;3.22;2.33;;;21.80;99.90;;;;;;4176788;28;20063;-61
2023/07/05 03:54:37;;;;;;;4.32;3.22;;;22.10;99.90;;;;;;4176761;28;20110;-65
2023/07/05 03:56:38;;;;;;;7.40;2.92;;;22.40;99.90;;;;;;4177049;28;20362;-61
2023/07/05 03:58:39;;;;;;;6.95;2.50;;;22.90;99.90;;;;;;4177000;28;20090;-61
2023/07/05 04:00:40;;;;;;;3.70;2.10;;;23.30;99.90;;;;;;4176909;28;20067;-61
2023/07/05 04:02:41;;;;;;;5.50;2.47;;;23.40;99.90;;;;;;4176275;28;20037;-62
2023/07/05 04:04:44;;;;;;;3.90;2.20;;;23.60;99.90;;;;;;4177858;28;20041;-63
2023/07/05 04:06:45;;;;;;;4.75;2.65;;;23.80;99.90;;;;;;4176496;28;20078;-65
2023/07/05 04:08:47;;;;;;;4.93;2.75;;;23.80;99.90;;;;;;4177521;28;21317;-62
2023/07/05 04:10:49;;;;;;;9.85;2.38;;;24.00;99.90;;;;;;4176607;28;20358;-72
2023/07/05 04:12:50;;;;;;;4.15;2.05;;;24.20;99.90;;;;;;4177321;28;20094;-61
2023/07/05 04:14:51;;;;;;;4.35;2.80;;;24.30;99.90;;;;;;4166252;28;20033;-61
2023/07/05 04:16:52;;;;;;;4.00;2.08;;;24.60;99.90;;;;;;4173374;28;20102;-62
2023/07/05 04:18:55;;;;;;;5.32;2.25;;;25.20;99.90;;;;;;4175754;28;20066;-60
2023/07/05 04:20:57;;;;;;;4.85;2.42;;;25.70;99.90;;;;;;4175871;28;20021;-59
2023/07/05 04:22:59;;;;;;;2.33;2.13;;;26.10;99.90;;;;;;4176609;28;20499;-61
2023/07/05 04:25:00;;;;;;;3.90;2.58;;;26.00;99.90;;;;;;4176989;28;20091;-62
2023/07/05 04:27:02;;;;;;;6.70;3.03;;;26.30;99.90;;;;;;4176496;28;20110;-61
2023/07/05 04:29:04;;;;;;;4.50;2.50;;;26.70;99.90;;;;;;4176439;28;20013;-60
2023/07/05 04:31:09;;;;;;;2.40;2.15;;;27.10;99.90;;;;;;4176577;28;20432;-61
2023/07/05 04:33:10;;;;;;;5.40;2.58;;;27.30;99.90;;;;;;4176152;28;20048;-60
2023/07/05 04:35:11;;;;;;;3.33;2.28;;;27.30;99.90;;;;;;4177496;28;20040;-61
2023/07/05 04:37:13;;;;;;;6.07;2.42;;;27.20;99.90;;;;;;4172225;28;20033;-60
2023/07/05 04:39:14;;;;;;;3.92;2.72;;;27.20;99.90;;;;;;4161361;28;20559;-62
2023/07/05 04:41:15;;;;;;;2.97;2.15;;;27.20;99.90;;;;;;4159372;28;20034;-66
2023/07/05 04:43:16;;;;;;;6.65;2.22;;;27.00;99.90;;;;;;4160732;28;20100;-61
2023/07/05 04:45:17;;;;;;;3.03;2.47;;;26.90;99.90;;;;;;4159611;28;20026;-61
2023/07/05 04:47:18;;;;;;;3.42;2.58;;;27.00;99.90;;;;;;4160498;28;20030;-61
2023/07/05 04:49:19;;;;;;;5.57;2.42;;;27.00;99.90;;;;;;4159754;28;20030;-60
2023/07/05 04:51:21;;;;;;;4.13;2.15;;;27.20;99.90;;;;;;4160777;28;20029;-67
2023/07/05 04:53:24;;;;;;;5.15;2.42;;;27.80;99.90;;;;;;4159319;28;20087;-61
2023/07/05 04:55:25;;;;;;;3.47;2.33;;;28.20;99.90;;;;;;4160497;28;20030;-63
2023/07/05 04:57:28;;;;;;;7.05;2.38;;;28.50;99.90;;;;;;4159505;28;20029;-61
2023/07/05 04:59:29;;;;;;;6.53;2.50;;;29.00;99.90;;;;;;4160380;28;20064;-60
2023/07/05 05:01:31;;;;;;;3.15;2.00;;;29.40;99.90;;;;;;4159839;28;20046;-61
2023/07/05 05:03:32;;;;;;;5.45;2.40;;;29.40;99.90;;;;;;4160116;28;20128;-61
2023/07/05 05:05:33;;;;;;;8.23;2.30;;;29.10;99.90;;;;;;4160901;28;20030;-61
2023/07/05 05:07:35;;;;;;;6.75;2.15;;;28.70;99.90;;;;;;4159366;28;20559;-61
2023/07/05 05:09:36;;;;;;;2.88;1.80;;;28.50;99.90;;;;;;4160884;28;20477;-63
2023/07/05 05:11:37;;;;;;;3.65;2.15;;;28.20;99.90;;;;;;4159629;28;20543;-66
2023/07/05 05:13:38;;;;;;;4.63;2.17;;;28.00;99.90;;;;;;4160788;28;20091;-61
2023/07/05 05:15:40;;;;;;;2.60;2.17;;;27.50;99.90;;;;;;4141680;28;20433;-62
2023/07/05 05:17:41;;;;;;;4.45;2.78;;;27.20;99.90;;;;;;4160324;28;20084;-61
2023/07/05 05:19:43;;;;;;;3.45;2.45;;;27.10;99.90;;;;;;4158970;28;20053;-61
2023/07/05 05:21:44;;;;;;;6.63;2.30;;;26.90;99.90;;;;;;4160330;28;20064;-60
2023/07/05 05:23:45;;;;;;;9.23;3.05;;;26.90;99.90;;;;;;4159452;28;20029;-62
2023/07/05 05:25:47;;;;;;;8.02;2.42;;;26.90;99.90;;;;;;4160272;28;20033;-64
2023/07/05 05:27:48;;;;;;;3.15;2.40;;;27.10;99.90;;;;;;4159436;28;20025;-61
2023/07/05 05:29:49;;;;;;;7.20;2.25;;;27.00;99.90;;;;;;4159965;28;20131;-62
2023/07/05 05:31:51;;;;;;;7.18;2.90;;;27.00;99.90;;;;;;4159847;28;20045;-61
2023/07/05 05:33:53;;;;;;;4.03;2.25;;;26.90;99.90;;;;;;4161911;28;20111;-60
2023/07/05 05:35:54;;;;;;;3.85;1.80;;;26.70;99.90;;;;;;4163631;28;20033;-60
2023/07/05 05:37:55;;;;;;;2.40;2.05;;;26.70;99.90;;;;;;4162067;28;20080;-60
2023/07/05 05:39:57;;;;;;;6.20;2.75;;;26.70;99.90;;;;;;4163494;28;20034;-61
2023/07/05 05:41:58;;;;;;;4.88;2.53;;;26.70;99.90;;;;;;4162412;28;20029;-61
2023/07/05 05:43:59;;;;;;;8.43;2.58;;;26.50;99.90;;;;;;4163060;28;20071;-63
2023/07/05 05:46:00;;;;;;;4.50;3.08;;;26.50;99.90;;;;;;4162149;28;20033;-71
2023/07/05 05:48:01;;;;;;;6.93;3.17;;;26.50;99.90;;;;;;4163275;28;20091;-59
2023/07/05 05:50:02;;;;;;;5.40;3.30;;;26.30;99.90;;;;;;4162381;28;20029;-62
2023/07/05 05:52:04;;;;;;;7.97;3.45;;;26.00;99.90;;;;;;4163232;28;20026;-60
2023/07/05 05:54:05;;;;;;;4.60;2.20;;;25.90;99.90;;;;;;4161322;28;20049;-60
2023/07/05 05:56:06;;;;;;;6.32;2.70;;;25.60;99.90;;;;;;4163124;28;20030;-74
2023/07/05 05:58:08;;;;;;;4.30;2.78;;;25.60;99.90;;;;;;4162201;28;20489;-60
2023/07/05 06:00:10;;;;;;;5.15;2.83;;;25.70;99.90;;;;;;4162738;28;20504;-61
2023/07/05 06:02:11;;;;;;;4.03;2.95;;;25.90;99.90;;;;;;4162430;28;20433;-60
2023/07/05 06:04:12;;;;;;;4.68;3.05;;;26.20;99.90;;;;;;4162274;28;20164;-61
2023/07/05 06:06:14;;;;;;;4.28;2.90;;;26.00;99.90;;;;;;4162943;28;20091;-62
2023/07/05 06:08:15;;;;;;;8.18;3.70;;;26.00;99.90;;;;;;4161480;28;20115;-61
2023/07/05 06:10:16;;;;;;;9.00;3.65;;;25.80;99.90;;;;;;4162845;28;20072;-63
2023/07/05 06:12:17;;;;;;;5.38;3.17;;;25.40;99.90;;;;;;4161739;28;20025;-61
2023/07/05 06:14:18;;;;;;;7.43;4.38;;;25.40;99.90;;;;;;4162972;28;20021;-69
2023/07/05 06:16:19;;;;;;;8.70;4.28;;;25.20;99.90;;;;;;4161110;28;20033;-67
2023/07/05 06:18:20;;;;;;;7.32;4.43;;;25.00;99.90;;;;;;4162423;28;20030;-60
2023/07/05 06:20:25;;;;;;;9.18;4.32;;;24.80;99.90;;;;;;4161246;28;20099;-60
2023/07/05 06:22:26;;;;;;;10.75;4.53;;;24.60;99.90;;;;;;4162982;28;20038;-62
2023/07/05 06:24:27;;;;;;;7.78;4.47;;;24.50;99.90;;;;;;4160739;28;20045;-61
2023/07/05 06:26:28;;;;;;;7.63;3.63;;;24.40;99.90;;;;;;4162001;28;20091;-63
2023/07/05 06:28:29;;;;;;;5.57;3.95;;;24.40;99.90;;;;;;4160983;28;20114;-66
2023/07/05 06:30:30;;;;;;;7.97;4.63;;;24.60;99.90;;;;;;4162382;28;20021;-62
2023/07/05 06:32:32;;;;;;;9.00;4.93;;;24.70;99.90;;;;;;4161048;28;20053;-60
2023/07/05 06:34:33;;;;;;;5.70;3.80;;;24.70;99.90;;;;;;4144114;28;20037;-62
2023/07/05 06:36:34;;;;;;;5.47;3.78;;;24.60;99.90;;;;;;4162370;28;20045;-64
2023/07/05 06:38:36;;;;;;;6.32;4.00;;;24.70;99.90;;;;;;4161586;28;20025;-60
2023/07/05 06:40:37;;;;;;;6.43;3.78;;;24.80;99.90;;;;;;4162515;28;20029;-64
2023/07/05 06:42:38;;;;;;;11.27;4.38;;;25.00;99.90;;;;;;4160872;28;20460;-61
2023/07/05 06:44:39;;;;;;;8.23;3.65;;;24.80;99.90;;;;;;4162225;28;20033;-62
2023/07/05 06:46:40;;;;;;;9.82;5.32;;;24.50;99.90;;;;;;4160212;28;20053;-66
2023/07/05 06:48:42;;;;;;;12.90;4.68;;;24.50;99.90;;;;;;4162370;28;20140;-60
2023/07/05 06:50:43;;;;;;;12.90;4.88;;;24.30;99.90;;;;;;4161203;28;20128;-63
2023/07/05 06:52:45;;;;;;;11.68;4.78;;;24.30;99.90;;;;;;4162129;28;20107;-60
2023/07/05 06:54:46;;;;;;;11.05;5.10;;;24.20;99.90;;;;;;4161130;28;20469;-62
2023/07/05 06:56:47;;;;;;;14.88;4.70;;;24.50;99.90;;;;;;4162456;28;20029;-62
2023/07/05 06:58:48;;;;;;;9.95;4.60;;;24.70;99.90;;;;;;4160826;28;20390;-62
2023/07/05 07:00:50;;;;;;;6.47;4.55;;;24.90;99.90;;;;;;4161720;28;20045;-66
2023/07/05 07:02:52;;;;;;;8.73;4.82;;;24.90;99.90;;;;;;4161021;28;20033;-59
2023/07/05 07:04:53;;;;;;;10.02;5.05;;;24.60;99.90;;;;;;4161638;28;20037;-65
2023/07/05 07:06:54;;;;;;;9.27;5.10;;;24.50;99.90;;;;;;4161119;28;20054;-62
2023/07/05 07:08:55;;;;;;;7.82;4.93;;;24.50;99.90;;;;;;4160084;28;20026;-66
2023/07/05 07:11:00;;;;;;;8.93;5.50;;;24.80;99.90;;;;;;4161015;28;20049;-60
2023/07/05 07:13:03;;;;;;;9.30;4.85;;;25.20;99.90;;;;;;4160706;28;20018;-60
2023/07/05 07:15:05;;;;;;;11.25;5.43;;;25.80;99.90;;;;;;4161949;28;20106;-59
2023/07/05 07:17:06;;;;;;;9.77;5.68;;;25.70;99.90;;;;;;4160661;28;20053;-60
2023/07/05 07:19:07;;;;;;;11.18;5.55;;;25.60;99.90;;;;;;4161144;28;20034;-61
2023/07/05 07:21:12;;;;;;;11.30;5.63;;;25.50;99.90;;;;;;4160536;28;20021;-58
2023/07/05 07:23:13;;;;;;;8.10;5.15;;;25.50;99.90;;;;;;4161740;28;20103;-62
2023/07/05 07:25:14;;;;;;;7.55;4.82;;;25.30;99.90;;;;;;4160806;28;20139;-63
2023/07/05 07:27:15;;;;;;;6.78;5.20;;;25.30;99.90;;;;;;4161076;28;20057;-63
2023/07/05 07:29:17;;;;;;;11.13;5.47;;;25.10;99.90;;;;;;4159653;28;20542;-58
2023/07/05 07:31:26;;;;;;;13.73;5.25;;;24.90;99.90;;;;;;4161155;28;20102;-63
2023/07/05 07:33:27;;;;;;;8.23;5.53;;;25.00;99.90;;;;;;4159482;28;20111;-65
2023/07/05 07:35:28;;;;;;;11.68;5.70;;;25.30;99.90;;;;;;4161726;28;20532;-61
2023/07/05 07:37:32;;;;;;;11.40;5.95;;;25.30;99.90;;;;;;4160818;28;20077;-65
2023/07/05 07:39:33;;;;;;;10.38;5.45;;;25.30;99.90;;;;;;4160236;28;20037;-59
2023/07/05 07:41:37;;;;;;;11.30;5.97;;;25.40;99.90;;;;;;4161041;28;20101;-59
2023/07/05 07:43:38;;;;;;;16.17;6.68;;;25.20;99.90;;;;;;4160692;28;20056;-60
2023/07/05 07:45:39;;;;;;;8.95;5.38;;;25.30;99.90;;;;;;4160512;28;20108;-61
2023/07/05 07:47:40;;;;;;;17.65;5.75;;;25.40;99.90;;;;;;4160076;28;20092;-57
2023/07/05 07:49:41;;;;;;;9.55;5.30;;;25.60;99.90;;;;;;4160797;28;20042;-61
2023/07/05 07:51:44;;;;;;;13.40;5.80;;;26.00;99.90;;;;;;4159914;28;20054;-61
2023/07/05 07:53:45;;;;;;;12.73;5.60;;;25.80;99.90;;;;;;4160869;28;20049;-61
2023/07/05 07:55:46;;;;;;;13.55;6.13;;;25.80;99.90;;;;;;4159052;28;20087;-61
2023/07/05 07:57:47;;;;;;;15.23;5.32;;;25.90;99.90;;;;;;4161217;28;20087;-60
2023/07/05 07:59:51;;;;;;;10.23;5.25;;;26.00;99.90;;;;;;4160192;28;20068;-60
2023/07/05 08:01:53;;;;;;;9.38;4.50;;;25.90;99.90;;;;;;4160796;28;20041;-61
2023/07/05 08:03:56;;;;;;;10.73;5.20;;;26.10;99.90;;;;;;4160110;28;20088;-60
2023/07/05 08:05:57;;;;;;;8.25;4.80;;;26.60;99.90;;;;;;4161226;28;20103;-61
2023/07/05 08:07:58;;;;;;;14.57;5.80;;;27.20;99.90;;;;;;4159529;28;20115;-60
2023/07/05 08:09:59;;;;;;;8.35;5.13;;;27.80;99.90;;;;;;4160867;28;20186;-67
2023/07/05 08:12:01;;;;;;;9.88;5.32;;;27.70;99.90;;;;;;4160113;28;20037;-62
2023/07/05 08:14:02;;;;;;;11.35;5.45;;;27.50;99.90;;;;;;4160240;28;20037;-61
2023/07/05 08:16:05;;;;;;;11.63;5.72;;;27.30;99.90;;;;;;4160396;28;20034;-63
2023/07/05 08:18:06;;;;;;;8.70;4.93;;;27.40;99.90;;;;;;4159930;28;20377;-61
2023/07/05 08:20:08;;;;;;;10.70;5.60;;;27.10;99.90;;;;;;4160657;28;20104;-64
2023/07/05 08:22:10;;;;;;;10.13;5.07;;;26.90;99.90;;;;;;4159600;28;20477;-76
2023/07/05 08:24:12;;;;;;;6.80;4.80;;;26.80;99.90;;;;;;4161156;28;20038;-61
2023/07/05 08:26:14;;;;;;;11.70;5.35;;;27.10;99.90;;;;;;4159946;28;20136;-61
2023/07/05 08:28:16;;;;;;;11.02;5.10;;;27.30;99.90;;;;;;4160269;28;20080;-65
2023/07/05 08:30:17;;;;;;;8.65;4.55;;;27.50;99.90;;;;;;4159803;28;20117;-62
2023/07/05 08:32:21;;;;;;;8.45;5.25;;;27.50;99.90;;;;;;4159940;28;20127;-60
2023/07/05 08:34:23;;;;;;;11.98;5.45;;;27.70;99.90;;;;;;4141541;28;20441;-61
2023/07/05 08:36:38;;;;;;;9.57;4.70;;;28.00;99.90;;;;;;4160459;28;20095;-61
2023/07/05 08:38:42;;;;;;;7.88;4.47;;;28.30;99.90;;;;;;4159563;28;20029;-61
2023/07/05 08:40:45;;;;;;;5.65;4.90;;;28.60;99.90;;;;;;4142933;28;20096;-62
2023/07/05 08:43:10;;;;;;;7.32;4.60;;;28.30;99.90;;;;;;4159711;28;20033;-60
2023/07/05 08:45:28;;;;;;;8.15;4.25;;;28.00;99.90;;;;;;4160834;28;20099;-61
2023/07/05 08:47:37;;;;;;;8.35;4.75;;;27.90;99.90;;;;;;4157951;28;20129;-59
2023/07/05 08:50:05;;;;;;;6.00;4.07;;;27.80;99.90;;;;;;4160654;28;20037;-64
2023/07/05 08:52:20;;;;;;;6.85;4.45;;;27.90;99.90;;;;;;4159666;28;20042;-61
2023/07/05 08:54:21;;;;;;;5.95;4.20;;;28.20;99.90;;;;;;4159551;28;20084;-60
2023/07/05 08:56:28;;;;;;;6.32;3.92;;;28.50;99.90;;;;;;4158926;28;20053;-60
2023/07/05 08:58:43;;;;;;;6.70;3.92;;;28.50;99.90;;;;;;4159962;28;20436;-62
2023/07/05 09:00:54;;;;;;;6.18;4.18;;;28.50;99.90;;;;;;4158662;28;20038;-69
2023/07/05 09:02:56;;;;;;;10.13;4.25;;;28.50;99.90;;;;;;4160523;28;20520;-64
2023/07/05 09:04:58;;;;;;;4.30;3.90;;;28.20;99.90;;;;;;4159369;28;20088;-60
2023/07/05 09:07:02;;;;;;;6.35;3.55;;;27.90;99.90;;;;;;4161808;28;20156;-62
2023/07/05 09:09:21;;;;;;;5.15;4.03;;;27.80;99.90;;;;;;4162963;28;20037;-61
2023/07/05 09:11:46;;;;;;;5.38;3.80;;;27.80;99.90;;;;;;4163922;28;20025;-61
2023/07/05 09:13:47;;;;;;;7.25;4.10;;;28.00;99.90;;;;;;4162110;28;20107;-58
2023/07/05 09:16:19;;;;;;;3.85;3.45;;;28.10;99.90;;;;;;4163925;28;20026;-59
2023/07/05 09:18:39;;;;;;;4.68;4.03;;;28.30;99.90;;;;;;4161931;28;20034;-61
2023/07/05 09:21:13;;;;;;;6.57;4.10;;;28.40;99.90;;;;;;4162788;28;20119;-60
2023/07/05 09:23:21;;;;;;;7.32;4.30;;;28.10;99.90;;;;;;4162871;28;20033;-61
2023/07/05 09:25:23;;;;;;;4.28;3.60;;;27.80;99.90;;;;;;4162401;28;20038;-61
2023/07/05 09:27:31;;;;;;;6.18;3.40;;;27.70;99.90;;;;;;4161779;28;20464;-64
2023/07/05 09:29:50;;;;;;;3.97;3.22;;;27.70;99.90;;;;;;4162870;28;20099;-60
2023/07/05 09:31:53;;;;;;;6.72;2.95;;;27.80;99.90;;;;;;4162042;28;20543;-63
2023/07/05 09:34:12;;;;;;;4.03;3.63;;;28.00;99.90;;;;;;4162423;28;20045;-62
2023/07/05 09:36:22;;;;;;;5.30;3.55;;;27.90;99.90;;;;;;4162737;28;20084;-59
2023/07/05 09:38:33;;;;;;;4.68;3.30;;;28.10;99.90;;;;;;4162948;28;20101;-61
2023/07/05 09:40:47;;;;;;;4.68;3.42;;;28.10;99.90;;;;;;4162668;28;20029;-61
2023/07/05 09:43:06;;;;;;;5.47;3.70;;;28.10;99.90;;;;;;4162287;28;20033;-61
2023/07/05 09:45:14;;;;;;;4.45;3.92;;;28.00;99.90;;;;;;4162090;28;20136;-63
2023/07/05 09:47:15;;;;;;;5.72;3.65;;;27.90;99.90;;;;;;4161900;28;20099;-63
2023/07/05 09:49:19;;;;;;;5.38;3.38;;;27.70;99.90;;;;;;4162533;28;20037;-62
2023/07/05 09:51:22;;;;;;;6.80;3.95;;;27.70;99.90;;;;;;4162551;28;20029;-60
2023/07/05 09:53:31;;;;;;;5.65;3.95;;;27.70;99.90;;;;;;4161815;28;20107;-63
2023/07/05 09:55:32;;;;;;;5.57;3.28;;;27.70;99.90;;;;;;4162532;28;20478;-60
2023/07/05 09:57:36;;;;;;;4.53;3.47;;;27.80;99.90;;;;;;4162329;28;20066;-59
2023/07/05 09:59:38;;;;;;;7.72;3.72;;;27.90;99.90;;;;;;4163113;28;20083;-60
2023/07/05 10:01:48;;;;;;;4.45;3.05;;;28.00;99.90;;;;;;4161088;28;20097;-64
2023/07/05 10:03:52;;;;;;;;;;;28.00;99.90;;;;;;4163701;28;20057;-60
2023/07/05 10:05:54;;;;;;;3.08;2.78;;;28.20;99.60;;;;;;4162558;28;19909;-60
2023/07/05 10:07:57;;;;;;;4.03;3.40;;;28.20;99.90;;;;;;4162883;28;20574;-60
2023/07/05 10:10:09;;;;;;;7.18;3.88;;;28.20;99.90;;;;;;4161254;28;20485;-58
2023/07/05 10:12:14;;;;;;;4.38;3.25;;;28.20;99.80;;;;;;4162489;28;20072;-60
2023/07/05 10:14:18;;;;;;;3.20;2.90;;;28.00;99.90;;;;;;4161886;28;20570;-63
2023/07/05 10:16:19;;;;;;;4.18;3.03;;;28.20;99.90;;;;;;4163007;28;20025;-60
2023/07/05 10:18:42;;;;;;;5.60;3.40;;;28.20;99.90;;;;;;4161212;28;20018;-65
2023/07/05 10:20:43;;;;;;;3.25;2.85;;;28.30;99.90;;;;;;4162695;28;20469;-63
2023/07/05 10:22:45;;;;;;;4.88;2.75;;;28.30;99.90;;;;;;4161598;28;20537;-60
2023/07/05 10:24:49;;;;;;;5.07;3.42;;;28.00;99.80;;;;;;4162571;28;20428;-63
2023/07/05 10:27:02;;;;;;;4.20;3.13;;;27.80;99.90;;;;;;4161493;28;20411;-71
2023/07/05 10:29:10;;;;;;;4.18;2.90;;;27.70;99.90;;;;;;4162286;28;20045;-63
2023/07/05 10:31:30;;;;;;;3.28;2.97;;;27.80;99.90;;;;;;4143674;28;20077;-60
2023/07/05 10:33:37;;;;;;;2.85;2.63;;;27.60;99.90;;;;;;4162600;28;20057;-61
2023/07/05 10:35:46;;;;;;;4.38;3.20;;;27.50;99.90;;;;;;4161827;28;20100;-60
2023/07/05 10:37:47;;;;;;;3.33;2.88;;;27.50;99.90;;;;;;4162281;28;20130;-60
2023/07/05 10:39:49;;;;;;;3.20;2.90;;;27.70;99.90;;;;;;4161610;28;20469;-60
2023/07/05 10:41:57;;;;;;;4.20;3.80;;;27.80;99.80;;;;;;4162125;28;20107;-61
2023/07/05 10:44:04;;;;;;;4.50;3.10;;;27.80;99.70;;;;;;4161373;28;20370;-64
2023/07/05 10:46:10;;;;;;;3.33;3.03;;;27.90;99.80;;;;;;4162570;28;20025;-64
2023/07/05 10:48:27;;;;;;;4.57;2.90;;;28.00;99.60;;;;;;4161090;28;20119;-61